createdAt,value
2023-05-24T00:03:33.303Z,26.86
2023-05-24T00:13:36.507Z,26.83
2023-05-24T00:23:39.650Z,26.81
2023-05-24T00:33:42.836Z,26.79
2023-05-24T00:43:45.993Z,26.79
2023-05-24T00:53:49.185Z,26.79
2023-05-24T01:03:52.387Z,26.77
2023-05-24T01:13:55.607Z,26.76
2023-05-24T01:23:58.745Z,26.74
2023-05-24T01:34:01.946Z,26.74
2023-05-24T01:44:05.097Z,26.73
2023-05-24T01:54:08.293Z,26.72
2023-05-24T02:04:11.440Z,26.69
2023-05-24T02:14:14.618Z,26.69
2023-05-24T02:24:17.770Z,26.67
2023-05-24T02:34:20.986Z,26.67
2023-05-24T02:44:24.133Z,26.65
2023-05-24T02:54:27.354Z,26.64
2023-05-24T03:04:30.513Z,26.64
2023-05-24T03:14:33.694Z,26.62
2023-05-24T03:24:36.831Z,26.59
2023-05-24T03:34:40.025Z,26.58
2023-05-24T03:44:43.172Z,26.57
2023-05-24T03:54:46.357Z,26.55
2023-05-24T04:04:49.508Z,26.55
2023-05-24T04:14:52.695Z,26.54
2023-05-24T04:24:55.865Z,26.52
2023-05-24T04:34:59.074Z,26.52
2023-05-24T04:45:02.232Z,26.50
2023-05-24T04:55:05.446Z,26.50
2023-05-24T05:05:08.628Z,26.52
2023-05-24T05:15:11.856Z,26.50
2023-05-24T05:25:15.012Z,26.49
2023-05-24T05:35:18.215Z,26.49
2023-05-24T05:45:21.403Z,26.49
2023-05-24T05:55:24.622Z,26.47
2023-05-24T06:05:27.860Z,26.50
2023-05-24T06:15:31.051Z,26.49
2023-05-24T06:25:34.208Z,26.49
2023-05-24T06:35:37.435Z,26.49
2023-05-24T06:45:40.604Z,26.50
2023-05-24T06:55:43.808Z,26.50
2023-05-24T07:05:46.986Z,26.47
2023-05-24T07:15:50.349Z,26.47
2023-05-24T07:25:53.511Z,26.49
2023-05-24T07:35:56.729Z,26.49
2023-05-24T07:45:59.949Z,26.49
2023-05-24T07:56:03.287Z,26.52
2023-05-24T08:06:06.441Z,26.50
2023-05-24T08:16:09.778Z,26.49
2023-05-24T08:26:12.945Z,26.47
2023-05-24T08:36:16.191Z,26.49
2023-05-24T08:46:19.407Z,26.47
2023-05-24T08:56:22.739Z,26.49
2023-05-24T09:06:25.887Z,26.46
2023-05-24T09:16:29.139Z,26.47
2023-05-24T09:26:32.298Z,26.46
2023-05-24T09:36:35.533Z,26.44
2023-05-24T09:46:38.899Z,26.47
2023-05-24T09:56:42.160Z,26.47
2023-05-24T10:06:45.341Z,26.44
2023-05-24T10:16:48.723Z,26.44
2023-05-24T10:26:51.941Z,26.44
2023-05-24T10:36:55.251Z,26.43
2023-05-24T10:46:58.474Z,26.44
2023-05-24T10:57:01.680Z,26.43
2023-05-24T11:07:04.841Z,26.42
2023-05-24T11:17:08.048Z,26.42
2023-05-24T11:27:11.209Z,26.42
2023-05-24T11:37:16.866Z,26.43
2023-05-24T11:47:18.433Z,26.43
2023-05-24T11:57:21.670Z,26.43
2023-05-24T12:07:24.823Z,26.43
2023-05-24T12:17:28.071Z,26.42
2023-05-24T12:27:31.260Z,26.42
2023-05-24T12:37:34.524Z,26.40
2023-05-24T12:47:37.698Z,26.40
2023-05-24T12:57:40.927Z,26.40
2023-05-24T13:07:44.108Z,26.40
2023-05-24T13:17:47.356Z,26.40
2023-05-24T13:27:50.551Z,26.40
2023-05-24T13:37:53.766Z,26.39
2023-05-24T13:47:56.948Z,26.42
2023-05-24T13:58:00.166Z,26.40
2023-05-24T14:08:03.357Z,26.42
2023-05-24T14:18:06.664Z,26.42
2023-05-24T14:28:09.899Z,26.43
2023-05-24T14:38:13.108Z,26.42
2023-05-24T14:48:16.384Z,26.42
2023-05-24T14:58:19.606Z,26.42
2023-05-24T15:08:22.759Z,26.43
2023-05-24T15:18:25.953Z,26.43
2023-05-24T15:28:29.106Z,26.43
2023-05-24T15:38:32.295Z,26.43
2023-05-24T15:48:35.457Z,26.43
2023-05-24T15:58:38.645Z,26.42
2023-05-24T16:08:41.863Z,26.43
2023-05-24T16:18:45.064Z,26.42
2023-05-24T16:28:48.229Z,26.40
2023-05-24T16:38:51.426Z,26.39
2023-05-24T16:48:54.662Z,26.39
2023-05-24T16:58:57.865Z,26.39
2023-05-24T17:09:01.022Z,26.39
2023-05-24T17:19:04.212Z,26.37
2023-05-24T17:29:07.366Z,26.37
2023-05-24T17:39:10.553Z,26.36
2023-05-24T17:49:13.707Z,26.37
2023-05-24T17:59:16.925Z,26.36
2023-05-24T18:09:20.087Z,26.36
2023-05-24T18:19:23.289Z,26.36
2023-05-24T18:29:26.440Z,26.36
2023-05-24T18:39:29.680Z,26.32
2023-05-24T18:49:32.842Z,26.32
2023-05-24T18:59:36.045Z,26.32
2023-05-24T19:09:39.198Z,26.32
2023-05-24T19:19:42.410Z,26.29
2023-05-24T19:29:45.558Z,26.29
2023-05-24T19:39:48.750Z,26.29
2023-05-24T19:49:51.910Z,26.28
2023-05-24T19:59:55.109Z,26.28
2023-05-24T20:09:58.274Z,26.28
2023-05-24T20:20:01.491Z,26.25
2023-05-24T20:30:04.640Z,26.25
2023-05-24T20:40:07.850Z,26.25
2023-05-24T20:50:11.038Z,26.22
2023-05-24T21:00:14.424Z,26.22
2023-05-24T21:10:17.580Z,26.24
2023-05-24T21:20:20.832Z,26.22
2023-05-24T21:30:24.006Z,26.21
2023-05-24T21:40:27.220Z,26.21
2023-05-24T21:50:30.361Z,26.20
2023-05-24T22:00:33.603Z,26.18
2023-05-24T22:10:36.764Z,26.20
2023-05-24T22:20:40.019Z,26.18
2023-05-24T22:30:43.214Z,26.17
2023-05-24T22:40:46.420Z,26.15
2023-05-24T22:50:49.569Z,26.15
2023-05-24T23:00:52.773Z,26.12
2023-05-24T23:10:55.940Z,26.11
2023-05-24T23:20:59.144Z,26.11
2023-05-24T23:31:02.321Z,26.11
2023-05-24T23:41:05.551Z,26.09
2023-05-24T23:51:08.718Z,26.09
